createdAt,value
2022-11-15T00:02:06.735Z,98.22
2022-11-15T00:04:37.636Z,104.05
2022-11-15T00:07:04.839Z,94.55
2022-11-15T00:09:32.259Z,96.38
2022-11-15T00:12:03.312Z,93.43
2022-11-15T00:14:31.495Z,87.65
2022-11-15T00:17:00.200Z,93.80
2022-11-15T00:19:27.228Z,85.43
2022-11-15T00:22:00.629Z,89.32
2022-11-15T00:24:30.160Z,100.47
2022-11-15T00:26:57.629Z,88.75
2022-11-15T00:29:24.970Z,81.72
2022-11-15T00:31:52.273Z,78.25
2022-11-15T00:34:23.046Z,82.70
2022-11-15T00:36:49.971Z,78.82
2022-11-15T00:39:35.366Z,82.95
2022-11-15T00:42:04.369Z,90.10
2022-11-15T00:44:33.358Z,78.68
2022-11-15T00:47:03.256Z,89.32
2022-11-15T00:49:31.937Z,75.40
2022-11-15T00:52:01.433Z,77.95
2022-11-15T00:54:35.138Z,80.97
2022-11-15T00:57:06.977Z,78.15
2022-11-15T00:59:34.643Z,83.20
2022-11-15T01:02:02.778Z,80.93
2022-11-15T01:04:32.997Z,84.43
2022-11-15T01:07:00.182Z,82.97
2022-11-15T01:09:27.466Z,82.00
2022-11-15T01:11:54.394Z,103.85
2022-11-15T01:14:25.332Z,93.25
2022-11-15T01:16:53.637Z,81.22
2022-11-15T01:19:21.845Z,78.65
2022-11-15T01:21:53.878Z,80.25
2022-11-15T01:24:22.327Z,86.15
2022-11-15T01:26:49.690Z,83.25
2022-11-15T01:29:16.768Z,91.90
2022-11-15T01:31:44.034Z,98.10
2022-11-15T01:34:10.959Z,80.47
2022-11-15T01:36:38.653Z,83.93
2022-11-15T01:39:06.161Z,79.10
2022-11-15T01:41:34.461Z,84.22
2022-11-15T01:44:39.736Z,75.68
2022-11-15T01:47:20.744Z,82.57
2022-11-15T01:49:52.480Z,91.15
2022-11-15T01:52:21.965Z,80.38
2022-11-15T01:54:55.288Z,70.07
2022-11-15T01:57:22.337Z,86.47
2022-11-15T01:59:49.470Z,75.95
2022-11-15T02:02:16.997Z,77.43
2022-11-15T02:04:47.917Z,94.50
2022-11-15T02:07:21.495Z,80.40
2022-11-15T02:09:48.884Z,88.35
2022-11-15T02:12:20.431Z,84.18
2022-11-15T02:14:52.405Z,85.93
2022-11-15T02:17:48.202Z,90.60
2022-11-15T02:20:37.425Z,76.55
2022-11-15T02:23:32.187Z,77.80
2022-11-15T02:26:17.214Z,77.65
2022-11-15T02:29:02.946Z,79.03
2022-11-15T02:32:02.434Z,76.07
2022-11-15T02:34:42.110Z,80.53
2022-11-15T02:37:27.695Z,87.88
2022-11-15T02:40:12.761Z,82.05
2022-11-15T02:43:09.056Z,72.65
2022-11-15T02:45:55.369Z,74.07
2022-11-15T02:48:24.865Z,72.93
2022-11-15T02:50:52.652Z,74.03
2022-11-15T02:53:25.135Z,81.30
2022-11-15T02:55:53.011Z,80.68
2022-11-15T02:58:38.745Z,81.32
2022-11-15T03:01:36.100Z,83.63
2022-11-15T03:04:18.289Z,80.80
2022-11-15T03:06:58.426Z,77.22
2022-11-15T03:09:26.799Z,77.43
2022-11-15T03:12:00.805Z,89.63
2022-11-15T03:14:44.333Z,79.47
2022-11-15T03:17:36.876Z,87.05
2022-11-15T03:20:07.095Z,81.05
2022-11-15T03:22:40.696Z,82.38
2022-11-15T03:25:11.059Z,88.35
2022-11-15T03:27:58.295Z,77.43
2022-11-15T03:30:25.333Z,81.55
2022-11-15T03:32:56.576Z,70.80
2022-11-15T03:35:27.514Z,87.78
2022-11-15T03:38:18.161Z,83.40
2022-11-15T03:40:55.251Z,81.78
2022-11-15T03:43:52.735Z,84.90
2022-11-15T03:46:34.371Z,81.00
2022-11-15T03:49:16.701Z,75.82
2022-11-15T03:51:43.568Z,86.60
2022-11-15T03:54:13.365Z,81.30
2022-11-15T03:56:40.217Z,78.20
2022-11-15T03:59:07.472Z,69.55
2022-11-15T04:01:35.488Z,77.50
2022-11-15T04:04:02.837Z,80.20
2022-11-15T04:06:30.117Z,81.10
2022-11-15T04:08:57.250Z,72.60
2022-11-15T04:11:24.104Z,76.80
2022-11-15T04:13:50.997Z,79.80
2022-11-15T04:16:18.391Z,78.43
2022-11-15T04:18:45.687Z,78.80
2022-11-15T04:21:30.961Z,78.18
2022-11-15T04:24:10.293Z,79.93
2022-11-15T04:26:37.189Z,84.93
2022-11-15T04:29:23.093Z,80.15
2022-11-15T04:31:49.953Z,75.47
2022-11-15T04:34:19.222Z,79.18
2022-11-15T04:37:04.530Z,84.85
2022-11-15T04:39:31.709Z,88.70
2022-11-15T04:41:58.935Z,89.78
2022-11-15T04:44:25.787Z,89.43
2022-11-15T04:46:52.952Z,93.05
2022-11-15T04:49:19.720Z,79.28
2022-11-15T04:51:46.934Z,88.63
2022-11-15T04:54:13.762Z,85.35
2022-11-15T04:56:40.950Z,84.93
2022-11-15T04:59:07.785Z,78.10
2022-11-15T05:01:36.797Z,90.40
2022-11-15T05:04:22.123Z,79.07
2022-11-15T05:06:51.102Z,78.38
2022-11-15T05:09:20.369Z,84.18
2022-11-15T05:11:48.110Z,75.88
2022-11-15T05:14:16.254Z,82.85
2022-11-15T05:16:43.871Z,79.63
2022-11-15T05:19:10.706Z,75.63
2022-11-15T05:21:38.684Z,83.80
2022-11-15T05:24:05.974Z,84.90
2022-11-15T05:26:33.352Z,81.95
2022-11-15T05:29:01.148Z,85.80
2022-11-15T05:31:28.428Z,90.65
2022-11-15T05:33:57.263Z,86.95
2022-11-15T05:36:34.567Z,87.13
2022-11-15T05:39:01.912Z,86.55
2022-11-15T05:41:38.614Z,84.55
2022-11-15T05:44:09.044Z,84.28
2022-11-15T05:46:38.437Z,81.78
2022-11-15T05:49:08.573Z,87.20
2022-11-15T05:51:37.371Z,84.75
2022-11-15T05:54:05.079Z,82.90
2022-11-15T05:56:32.556Z,88.90
2022-11-15T05:59:00.280Z,89.65
2022-11-15T06:01:28.943Z,91.35
2022-11-15T06:03:56.353Z,97.57
2022-11-15T06:06:23.670Z,94.22
2022-11-15T06:08:50.907Z,99.95
2022-11-15T06:11:17.724Z,116.55
2022-11-15T06:13:45.243Z,94.28
2022-11-15T06:16:12.062Z,98.22
2022-11-15T06:18:39.923Z,87.97
2022-11-15T06:21:07.299Z,100.32
2022-11-15T06:23:36.223Z,87.90
2022-11-15T06:26:05.888Z,87.95
2022-11-15T06:28:33.636Z,93.07
2022-11-15T06:31:09.626Z,86.80
2022-11-15T06:33:36.551Z,96.63
2022-11-15T06:36:11.960Z,80.88
2022-11-15T06:38:43.114Z,94.30
2022-11-15T06:41:12.173Z,83.97
2022-11-15T06:43:40.704Z,87.25
2022-11-15T06:46:08.579Z,86.10
2022-11-15T06:48:36.257Z,82.07
2022-11-15T06:51:05.429Z,80.55
2022-11-15T06:53:34.223Z,90.88
2022-11-15T06:56:02.821Z,86.90
2022-11-15T06:58:30.150Z,86.82
2022-11-15T07:01:02.449Z,81.47
2022-11-15T07:03:30.158Z,83.63
2022-11-15T07:06:04.218Z,75.32
2022-11-15T07:08:34.235Z,82.88
2022-11-15T07:11:08.286Z,84.53
2022-11-15T07:13:37.140Z,78.78
2022-11-15T07:16:09.604Z,96.85
2022-11-15T07:18:40.786Z,74.72
2022-11-15T07:21:10.410Z,77.00
2022-11-15T07:23:39.676Z,83.80
2022-11-15T07:26:08.362Z,51.08
2022-11-15T07:28:38.517Z,49.60
2022-11-15T07:31:07.495Z,39.35
2022-11-15T07:33:35.724Z,38.05
2022-11-15T07:36:04.208Z,41.85
2022-11-15T07:38:31.459Z,39.47
2022-11-15T07:41:04.096Z,36.78
2022-11-15T07:43:31.731Z,37.22
2022-11-15T07:45:59.746Z,35.58
2022-11-15T07:48:35.604Z,37.22
2022-11-15T07:51:16.685Z,33.20
2022-11-15T07:53:44.607Z,36.15
2022-11-15T07:56:12.216Z,37.35
2022-11-15T07:58:41.338Z,35.30
2022-11-15T08:01:10.835Z,39.78
2022-11-15T08:03:38.653Z,35.88
2022-11-15T08:06:05.798Z,40.60
2022-11-15T08:08:32.951Z,34.88
2022-11-15T08:11:00.261Z,43.92
2022-11-15T08:13:27.937Z,43.72
2022-11-15T08:16:02.202Z,43.38
2022-11-15T08:18:29.466Z,40.80
2022-11-15T08:21:01.068Z,48.03
2022-11-15T08:23:30.332Z,43.08
2022-11-15T08:26:02.480Z,48.92
2022-11-15T08:28:30.439Z,54.58
2022-11-15T08:30:57.739Z,44.72
2022-11-15T08:33:26.419Z,40.92
2022-11-15T08:35:53.210Z,39.33
2022-11-15T08:38:19.987Z,36.67
2022-11-15T08:40:47.197Z,38.88
2022-11-15T08:43:13.954Z,33.88
2022-11-15T08:45:41.109Z,40.00
2022-11-15T08:48:07.900Z,36.45
2022-11-15T08:50:35.949Z,34.00
2022-11-15T08:53:08.201Z,33.92
2022-11-15T08:55:38.544Z,36.72
2022-11-15T08:58:06.511Z,37.33
2022-11-15T09:00:34.693Z,37.13
2022-11-15T09:03:04.840Z,33.38
2022-11-15T09:05:32.323Z,33.88
2022-11-15T09:07:59.995Z,36.35
2022-11-15T09:10:33.980Z,37.03
2022-11-15T09:13:03.268Z,40.17
2022-11-15T09:15:31.196Z,34.03
2022-11-15T09:18:01.566Z,32.83
2022-11-15T09:20:28.785Z,30.63
2022-11-15T09:22:56.075Z,29.23
2022-11-15T09:25:23.209Z,37.13
2022-11-15T09:27:50.426Z,31.65
2022-11-15T09:30:17.419Z,25.23
2022-11-15T09:32:44.215Z,31.65
2022-11-15T09:35:13.163Z,26.23
2022-11-15T09:37:41.128Z,31.55
2022-11-15T09:40:14.666Z,29.17
2022-11-15T09:43:12.122Z,30.52
2022-11-15T09:46:03.851Z,29.60
2022-11-15T09:49:11.755Z,28.83
2022-11-15T09:51:51.909Z,35.35
2022-11-15T09:54:52.802Z,23.35
2022-11-15T09:57:32.927Z,30.05
2022-11-15T10:00:46.365Z,31.00
2022-11-15T10:03:32.074Z,32.83
2022-11-15T10:06:03.895Z,33.55
2022-11-15T10:08:40.081Z,26.90
2022-11-15T10:11:36.825Z,30.10
2022-11-15T10:14:21.159Z,23.75
2022-11-15T10:16:52.185Z,24.17
2022-11-15T10:20:05.331Z,26.23
2022-11-15T10:22:52.699Z,32.00
2022-11-15T10:25:35.059Z,29.48
2022-11-15T10:28:30.769Z,24.40
2022-11-15T10:31:00.881Z,25.90
2022-11-15T10:33:34.859Z,27.08
2022-11-15T10:36:11.424Z,30.70
2022-11-15T10:38:57.832Z,30.17
2022-11-15T10:41:38.016Z,31.70
2022-11-15T10:44:31.304Z,28.05
2022-11-15T10:47:04.320Z,30.83
2022-11-15T10:49:33.903Z,28.50
2022-11-15T10:52:05.910Z,34.88
2022-11-15T10:54:50.920Z,27.95
2022-11-15T10:57:19.846Z,25.52
2022-11-15T10:59:56.837Z,24.70
2022-11-15T11:02:31.788Z,28.30
2022-11-15T11:04:59.650Z,21.85
2022-11-15T11:07:34.579Z,23.63
2022-11-15T11:10:49.841Z,23.67
2022-11-15T11:13:22.791Z,16.60
2022-11-15T11:15:59.511Z,20.52
2022-11-15T11:18:39.043Z,17.63
2022-11-15T11:21:15.283Z,18.98
2022-11-15T11:24:15.064Z,21.63
2022-11-15T11:26:59.708Z,21.27
2022-11-15T11:29:57.456Z,16.58
2022-11-15T11:33:06.677Z,21.17
2022-11-15T11:35:56.655Z,16.42
2022-11-15T11:38:44.781Z,16.77
2022-11-15T11:41:41.919Z,17.30
2022-11-15T11:44:19.292Z,13.18
2022-11-15T11:46:50.666Z,15.13
2022-11-15T11:49:31.383Z,19.55
2022-11-15T11:52:28.948Z,18.55
2022-11-15T11:55:21.714Z,23.42
2022-11-15T11:58:04.609Z,23.50
2022-11-15T12:00:36.873Z,14.43
2022-11-15T12:03:29.529Z,18.23
2022-11-15T12:06:04.572Z,19.48
2022-11-15T12:08:38.891Z,15.90
2022-11-15T12:11:30.460Z,18.08
2022-11-15T12:14:02.300Z,17.80
2022-11-15T12:16:31.741Z,17.83
2022-11-15T12:19:04.086Z,12.40
2022-11-15T12:21:55.672Z,19.75
2022-11-15T12:24:33.589Z,13.38
2022-11-15T12:27:24.950Z,13.50
2022-11-15T12:29:57.939Z,16.27
2022-11-15T12:32:35.040Z,16.10
2022-11-15T12:35:14.709Z,22.95
2022-11-15T12:37:45.041Z,17.90
2022-11-15T12:40:28.510Z,14.45
2022-11-15T12:43:40.049Z,18.23
2022-11-15T12:46:12.733Z,15.25
2022-11-15T12:48:39.829Z,16.70
2022-11-15T12:51:07.269Z,16.30
2022-11-15T12:53:36.494Z,16.13
2022-11-15T12:56:35.617Z,15.70
2022-11-15T12:59:03.833Z,17.45
2022-11-15T13:01:37.136Z,13.45
2022-11-15T13:04:13.086Z,22.13
2022-11-15T13:06:51.056Z,14.45
2022-11-15T13:09:30.292Z,21.15
2022-11-15T13:12:00.155Z,15.50
2022-11-15T13:14:43.187Z,17.05
2022-11-15T13:17:35.382Z,13.23
2022-11-15T13:20:08.693Z,19.20
2022-11-15T13:23:08.295Z,15.48
2022-11-15T13:25:41.072Z,18.52
2022-11-15T13:28:16.208Z,15.60
2022-11-15T13:30:55.560Z,15.13
2022-11-15T13:33:38.188Z,18.35
2022-11-15T13:36:11.120Z,19.05
2022-11-15T13:38:40.541Z,17.13
2022-11-15T13:41:20.294Z,17.70
2022-11-15T13:43:47.950Z,18.20
2022-11-15T13:46:19.487Z,22.98
2022-11-15T13:48:52.308Z,20.25
2022-11-15T13:51:41.620Z,20.90
2022-11-15T13:54:22.607Z,17.92
2022-11-15T13:57:12.984Z,20.00
2022-11-15T13:59:53.334Z,21.33
2022-11-15T14:02:26.948Z,21.50
2022-11-15T14:05:15.182Z,25.30
2022-11-15T14:07:56.616Z,21.50
2022-11-15T14:10:36.269Z,20.45
2022-11-15T14:13:04.451Z,19.73
2022-11-15T14:15:33.450Z,22.20
2022-11-15T14:18:02.060Z,20.95
2022-11-15T14:20:37.506Z,28.95
2022-11-15T14:23:10.114Z,21.60
2022-11-15T14:25:37.172Z,23.08
2022-11-15T14:28:15.464Z,23.75
2022-11-15T14:30:45.106Z,23.23
2022-11-15T14:33:32.478Z,21.60
2022-11-15T14:36:11.997Z,25.08
2022-11-15T14:38:38.866Z,28.50
2022-11-15T14:41:07.257Z,25.73
2022-11-15T14:43:34.150Z,26.30
2022-11-15T14:46:01.494Z,24.42
2022-11-15T14:48:28.852Z,26.55
2022-11-15T14:50:57.169Z,18.50
2022-11-15T14:53:24.003Z,22.23
2022-11-15T14:55:52.817Z,25.77
2022-11-15T14:58:19.707Z,22.80
2022-11-15T15:00:48.188Z,25.52
2022-11-15T15:03:15.823Z,22.00
2022-11-15T15:05:45.171Z,22.92
2022-11-15T15:08:12.810Z,21.58
2022-11-15T15:10:48.069Z,27.75
2022-11-15T15:13:19.650Z,21.58
2022-11-15T15:15:47.578Z,25.70
2022-11-15T15:18:14.657Z,23.33
2022-11-15T15:20:43.804Z,25.48
2022-11-15T15:23:20.074Z,23.60
2022-11-15T15:25:50.322Z,26.52
2022-11-15T15:28:20.343Z,22.38
2022-11-15T15:30:51.934Z,35.47
2022-11-15T15:36:01.451Z,25.55
2022-11-15T15:38:29.539Z,26.20
2022-11-15T15:43:37.669Z,28.33
2022-11-15T15:46:19.306Z,26.85
2022-11-15T15:48:53.655Z,24.15
2022-11-15T15:51:21.009Z,27.67
2022-11-15T15:53:50.955Z,35.08
2022-11-15T15:56:18.210Z,30.20
2022-11-15T15:58:51.157Z,25.40
2022-11-15T16:01:30.554Z,31.23
2022-11-15T16:04:06.610Z,41.40
2022-11-15T16:06:55.896Z,27.42
2022-11-15T16:09:46.210Z,32.53
2022-11-15T16:12:15.500Z,38.33
2022-11-15T16:14:42.496Z,35.13
2022-11-15T16:17:17.946Z,43.38
2022-11-15T16:19:47.554Z,35.70
2022-11-15T16:22:16.443Z,32.88
2022-11-15T16:24:50.166Z,38.30
2022-11-15T16:27:19.879Z,36.95
2022-11-15T16:29:47.510Z,35.45
2022-11-15T16:32:14.966Z,39.67
2022-11-15T16:34:48.454Z,35.67
2022-11-15T16:37:25.541Z,41.35
2022-11-15T16:39:58.382Z,38.35
2022-11-15T16:42:27.625Z,53.60
2022-11-15T16:44:56.954Z,41.85
2022-11-15T16:47:24.051Z,42.58
2022-11-15T16:49:50.847Z,40.45
2022-11-15T16:52:21.417Z,40.35
2022-11-15T16:54:48.513Z,39.85
2022-11-15T16:57:16.661Z,51.78
2022-11-15T16:59:43.483Z,40.33
2022-11-15T17:02:13.137Z,44.55
2022-11-15T17:04:40.459Z,41.33
2022-11-15T17:07:07.328Z,41.55
2022-11-15T17:09:34.881Z,49.28
2022-11-15T17:12:01.729Z,46.53
2022-11-15T17:14:29.003Z,38.80
2022-11-15T17:16:56.238Z,49.35
2022-11-15T17:19:23.257Z,46.58
2022-11-15T17:21:50.789Z,46.28
2022-11-15T17:24:17.610Z,47.90
2022-11-15T17:26:45.030Z,48.60
2022-11-15T17:29:12.494Z,49.08
2022-11-15T17:31:39.367Z,44.20
2022-11-15T17:34:07.018Z,45.08
2022-11-15T17:36:35.654Z,49.05
2022-11-15T17:39:04.135Z,44.30
2022-11-15T17:41:32.775Z,48.45
2022-11-15T17:44:03.634Z,45.20
2022-11-15T17:46:33.903Z,54.67
2022-11-15T17:49:02.570Z,56.33
2022-11-15T17:51:30.312Z,51.58
2022-11-15T17:53:59.568Z,61.42
2022-11-15T17:56:29.777Z,50.42
2022-11-15T17:59:09.063Z,61.72
2022-11-15T18:01:40.676Z,58.22
2022-11-15T18:04:11.557Z,56.17
2022-11-15T18:06:46.354Z,52.45
2022-11-15T18:09:15.847Z,49.78
2022-11-15T18:11:47.029Z,55.90
2022-11-15T18:14:15.759Z,61.85
2022-11-15T18:16:43.076Z,64.40
2022-11-15T18:19:14.235Z,55.75
2022-11-15T18:21:59.740Z,58.13
2022-11-15T18:24:29.602Z,54.90
2022-11-15T18:27:01.657Z,64.70
2022-11-15T18:29:30.347Z,57.70
2022-11-15T18:31:59.609Z,55.10
2022-11-15T18:34:32.297Z,54.35
2022-11-15T18:37:00.790Z,71.22
2022-11-15T18:39:32.292Z,51.17
2022-11-15T18:41:59.466Z,80.05
2022-11-15T18:44:31.347Z,70.38
2022-11-15T18:47:04.363Z,65.70
2022-11-15T18:49:31.814Z,68.22
2022-11-15T18:52:00.497Z,57.15
2022-11-15T18:54:31.239Z,53.25
2022-11-15T18:56:58.683Z,48.33
2022-11-15T18:59:28.039Z,59.60
2022-11-15T19:02:05.921Z,51.83
2022-11-15T19:04:35.384Z,59.17
2022-11-15T19:07:02.843Z,60.63
2022-11-15T19:09:35.188Z,67.45
2022-11-15T19:12:06.076Z,54.40
2022-11-15T19:14:36.081Z,74.40
2022-11-15T19:17:04.736Z,84.38
2022-11-15T19:22:15.730Z,104.60
2022-11-15T19:24:46.941Z,99.60
2022-11-15T19:27:13.958Z,88.30
2022-11-15T19:29:42.287Z,85.68
2022-11-15T19:32:10.127Z,74.88
2022-11-15T19:34:38.068Z,90.85
2022-11-15T19:37:08.310Z,86.95
2022-11-15T19:39:39.800Z,92.10
2022-11-15T19:42:11.239Z,89.55
2022-11-15T19:44:39.614Z,84.78
2022-11-15T19:47:09.535Z,87.00
2022-11-15T19:49:39.628Z,89.78
2022-11-15T19:52:06.533Z,81.60
2022-11-15T19:54:33.794Z,92.30
2022-11-15T19:57:00.572Z,85.13
2022-11-15T19:59:31.417Z,87.85
2022-11-15T20:01:59.489Z,81.28
2022-11-15T20:04:26.884Z,92.38
2022-11-15T20:06:56.776Z,88.05
2022-11-15T20:09:25.934Z,78.30
2022-11-15T20:11:58.915Z,79.00
2022-11-15T20:14:26.764Z,86.60
2022-11-15T20:16:56.297Z,86.55
2022-11-15T20:19:25.711Z,79.95
2022-11-15T20:21:59.258Z,91.97
2022-11-15T20:24:31.998Z,89.93
2022-11-15T20:26:59.910Z,81.45
2022-11-15T20:29:42.312Z,80.72
2022-11-15T20:32:11.358Z,89.15
2022-11-15T20:34:41.421Z,80.88
2022-11-15T20:37:08.656Z,79.18
2022-11-15T20:39:35.649Z,84.28
2022-11-15T20:42:04.226Z,77.47
2022-11-15T20:44:31.315Z,82.13
2022-11-15T20:47:02.310Z,76.63
2022-11-15T20:49:29.413Z,83.80
2022-11-15T20:51:56.236Z,76.85
2022-11-15T20:54:25.622Z,80.35
2022-11-15T20:56:55.917Z,84.20
2022-11-15T20:59:23.060Z,69.30
2022-11-15T21:01:49.989Z,78.00
2022-11-15T21:04:18.545Z,86.60
2022-11-15T21:06:48.855Z,79.15
2022-11-15T21:09:35.788Z,87.72
2022-11-15T21:12:11.430Z,71.20
2022-11-15T21:14:40.401Z,72.40
2022-11-15T21:17:10.109Z,73.18
2022-11-15T21:19:37.899Z,63.30
2022-11-15T21:22:09.959Z,74.72
2022-11-15T21:24:39.831Z,81.70
2022-11-15T21:27:06.926Z,69.03
2022-11-15T21:29:40.439Z,70.65
2022-11-15T21:32:09.519Z,74.32
2022-11-15T21:34:40.495Z,73.05
2022-11-15T21:37:11.072Z,66.35
2022-11-15T21:39:39.374Z,65.85
2022-11-15T21:42:08.337Z,73.45
2022-11-15T21:44:51.447Z,74.43
2022-11-15T21:47:21.841Z,62.58
2022-11-15T21:49:49.212Z,57.78
2022-11-15T21:52:16.488Z,63.20
2022-11-15T21:54:45.762Z,68.57
2022-11-15T21:57:14.805Z,64.00
2022-11-15T22:00:01.586Z,60.00
2022-11-15T22:03:25.209Z,56.92
2022-11-15T22:05:54.394Z,61.30
2022-11-15T22:08:21.617Z,57.20
2022-11-15T22:10:53.371Z,61.25
2022-11-15T22:13:21.142Z,69.18
2022-11-15T22:15:48.741Z,64.78
2022-11-15T22:18:16.021Z,69.32
2022-11-15T22:20:51.985Z,68.82
2022-11-15T22:23:23.033Z,64.15
2022-11-15T22:25:50.888Z,60.15
2022-11-15T22:28:20.969Z,57.80
2022-11-15T22:30:49.587Z,60.55
2022-11-15T22:33:19.326Z,60.88
2022-11-15T22:35:47.729Z,72.00
2022-11-15T22:38:16.912Z,76.30
2022-11-15T22:40:44.866Z,62.03
2022-11-15T22:43:15.430Z,62.50
2022-11-15T22:45:58.069Z,60.60
2022-11-15T22:48:34.228Z,71.53
2022-11-15T22:51:05.071Z,67.88
2022-11-15T22:53:32.966Z,68.40
2022-11-15T22:56:02.530Z,65.72
2022-11-15T22:58:33.212Z,67.90
2022-11-15T23:01:06.915Z,77.70
2022-11-15T23:03:34.652Z,74.03
2022-11-15T23:06:06.593Z,68.15
2022-11-15T23:08:37.089Z,67.88
2022-11-15T23:11:32.476Z,84.32
2022-11-15T23:14:03.148Z,76.65
2022-11-15T23:16:49.873Z,79.88
2022-11-15T23:19:21.715Z,77.30
2022-11-15T23:22:08.433Z,69.47
2022-11-15T23:24:46.410Z,76.10
2022-11-15T23:27:42.184Z,81.15
2022-11-15T23:30:28.313Z,74.47
2022-11-15T23:33:14.859Z,74.75
2022-11-15T23:35:47.569Z,78.95
2022-11-15T23:38:16.565Z,74.53
2022-11-15T23:40:45.720Z,76.97
2022-11-15T23:43:19.482Z,79.93
2022-11-15T23:45:48.418Z,78.38
2022-11-15T23:48:21.201Z,71.82
2022-11-15T23:50:59.813Z,73.25
2022-11-15T23:53:31.537Z,78.45
2022-11-15T23:56:18.072Z,76.28
